createdAt,value
2019-05-01T00:01:58.641Z,10.28
2019-05-01T00:04:29.677Z,9.13
2019-05-01T00:07:03.575Z,9.68
2019-05-01T00:09:33.051Z,9.75
2019-05-01T00:12:02.486Z,11.12
2019-05-01T00:14:32.036Z,12.20
2019-05-01T00:17:01.403Z,11.57
2019-05-01T00:19:30.740Z,11.35
2019-05-01T00:22:00.181Z,10.25
2019-05-01T00:24:29.529Z,10.38
2019-05-01T00:26:58.890Z,12.25
2019-05-01T00:29:28.228Z,11.50
2019-05-01T00:31:57.660Z,12.25
2019-05-01T00:34:26.995Z,12.85
2019-05-01T00:36:56.358Z,12.93
2019-05-01T00:39:25.692Z,12.20
2019-05-01T00:41:55.054Z,10.28
2019-05-01T00:44:24.560Z,11.55
2019-05-01T00:46:53.895Z,12.33
2019-05-01T00:49:23.262Z,12.65
2019-05-01T00:51:52.597Z,11.68
2019-05-01T00:54:21.955Z,11.10
2019-05-01T00:56:56.419Z,12.80
2019-05-01T00:59:30.495Z,12.20
2019-05-01T01:02:13.742Z,11.45
2019-05-01T01:04:43.153Z,12.23
2019-05-01T01:07:12.581Z,10.60
2019-05-01T01:09:41.909Z,10.90
2019-05-01T01:12:11.282Z,12.25
2019-05-01T01:14:40.619Z,11.22
2019-05-01T01:17:09.959Z,10.82
2019-05-01T01:19:39.329Z,12.00
2019-05-01T01:22:08.666Z,10.88
2019-05-01T01:24:38.169Z,11.63
2019-05-01T01:27:07.644Z,13.35
2019-05-01T01:29:37.095Z,13.60
2019-05-01T01:32:06.606Z,13.20
2019-05-01T01:34:36.120Z,14.10
2019-05-01T01:37:05.595Z,14.83
2019-05-01T01:39:35.087Z,14.73
2019-05-01T01:42:04.764Z,12.73
2019-05-01T01:44:41.688Z,13.85
2019-05-01T01:47:11.569Z,14.13
2019-05-01T01:49:41.000Z,12.98
2019-05-01T01:52:10.467Z,13.28
2019-05-01T01:54:39.975Z,14.15
2019-05-01T01:57:09.377Z,13.48
2019-05-01T01:59:38.812Z,12.82
2019-05-01T02:02:15.864Z,13.38
2019-05-01T02:04:49.609Z,12.50
2019-05-01T02:07:19.084Z,12.25
2019-05-01T02:09:48.590Z,12.00
2019-05-01T02:12:18.268Z,13.75
2019-05-01T02:14:47.696Z,12.73
2019-05-01T02:17:17.112Z,12.70
2019-05-01T02:19:46.610Z,11.88
2019-05-01T02:22:16.086Z,11.53
2019-05-01T02:24:45.889Z,11.83
2019-05-01T02:27:17.003Z,14.03
2019-05-01T02:29:48.242Z,12.33
2019-05-01T02:32:19.712Z,13.43
2019-05-01T02:34:50.325Z,12.05
2019-05-01T02:37:20.687Z,11.75
2019-05-01T02:39:51.492Z,14.03
2019-05-01T02:42:22.914Z,13.03
2019-05-01T02:44:55.667Z,13.15
2019-05-01T02:47:29.909Z,15.08
2019-05-01T02:50:12.735Z,14.05
2019-05-01T02:52:44.501Z,13.43
2019-05-01T02:55:16.216Z,12.20
2019-05-01T02:57:47.595Z,12.98
2019-05-01T03:00:17.639Z,11.93
2019-05-01T03:02:47.112Z,12.70
2019-05-01T03:05:16.554Z,12.65
2019-05-01T03:07:46.527Z,14.10
2019-05-01T03:10:17.142Z,13.90
2019-05-01T03:12:48.601Z,13.75
2019-05-01T03:15:19.700Z,12.30
2019-05-01T03:18:09.487Z,13.58
2019-05-01T03:20:59.575Z,12.47
2019-05-01T03:23:30.800Z,10.65
2019-05-01T03:26:00.773Z,14.70
2019-05-01T03:28:30.876Z,14.18
2019-05-01T03:31:00.320Z,15.78
2019-05-01T03:33:29.794Z,13.38
2019-05-01T03:35:59.292Z,14.30
2019-05-01T03:38:29.770Z,12.88
2019-05-01T03:40:59.399Z,13.18
2019-05-01T03:43:29.474Z,14.28
2019-05-01T03:45:59.278Z,14.60
2019-05-01T03:48:29.118Z,13.03
2019-05-01T03:50:58.626Z,15.18
2019-05-01T03:53:28.103Z,15.83
2019-05-01T03:55:57.463Z,13.15
2019-05-01T03:58:26.877Z,16.27
2019-05-01T04:01:16.563Z,15.28
2019-05-01T04:03:47.966Z,15.78
2019-05-01T04:06:17.470Z,16.93
2019-05-01T04:08:47.229Z,16.35
2019-05-01T04:11:16.752Z,17.40
2019-05-01T04:13:46.458Z,17.92
2019-05-01T04:16:16.608Z,15.75
2019-05-01T04:18:46.257Z,14.35
2019-05-01T04:21:16.393Z,13.62
2019-05-01T04:23:45.971Z,14.18
2019-05-01T04:26:15.677Z,12.35
2019-05-01T04:29:04.951Z,11.05
2019-05-01T04:31:36.045Z,10.45
2019-05-01T04:34:07.156Z,9.75
2019-05-01T04:36:38.571Z,9.80
2019-05-01T04:39:08.959Z,8.40
2019-05-01T04:41:38.376Z,7.65
2019-05-01T04:44:07.852Z,7.05
2019-05-01T04:46:37.452Z,7.50
2019-05-01T04:49:06.917Z,7.00
2019-05-01T04:51:36.997Z,7.97
2019-05-01T04:54:06.705Z,7.33
2019-05-01T04:56:36.107Z,7.30
2019-05-01T04:59:05.963Z,7.47
2019-05-01T05:01:56.970Z,8.58
2019-05-01T05:04:26.914Z,7.95
2019-05-01T05:06:56.322Z,7.87
2019-05-01T05:09:43.343Z,8.43
2019-05-01T05:12:30.709Z,7.62
2019-05-01T05:15:02.759Z,7.22
2019-05-01T05:17:32.821Z,8.10
2019-05-01T05:20:02.224Z,8.40
2019-05-01T05:22:32.074Z,8.50
2019-05-01T05:25:01.652Z,9.00
2019-05-01T05:27:31.147Z,8.35
2019-05-01T05:30:01.718Z,8.85
2019-05-01T05:32:33.156Z,9.30
2019-05-01T05:35:05.850Z,8.63
2019-05-01T05:37:39.464Z,9.60
2019-05-01T05:40:09.045Z,9.75
2019-05-01T05:42:39.013Z,9.40
2019-05-01T05:45:09.316Z,10.23
2019-05-01T05:47:38.925Z,9.83
2019-05-01T05:50:10.401Z,9.00
2019-05-01T05:52:42.979Z,10.40
2019-05-01T05:55:14.196Z,9.50
2019-05-01T05:57:56.408Z,17.52
2019-05-01T06:00:43.940Z,11.90
2019-05-01T06:03:30.769Z,9.75
2019-05-01T06:05:57.787Z,9.30
2019-05-01T06:08:30.626Z,9.93
2019-05-01T06:11:15.347Z,10.58
2019-05-01T06:13:58.959Z,9.63
2019-05-01T06:16:52.048Z,9.20
2019-05-01T06:19:23.715Z,9.93
2019-05-01T06:22:14.466Z,9.65
2019-05-01T06:24:46.124Z,9.83
2019-05-01T06:27:15.995Z,9.65
2019-05-01T06:29:45.596Z,9.90
2019-05-01T06:32:15.001Z,9.05
2019-05-01T06:34:44.502Z,9.85
2019-05-01T06:37:14.174Z,9.33
2019-05-01T06:39:47.955Z,10.53
2019-05-01T06:42:17.132Z,9.98
2019-05-01T06:44:51.304Z,10.03
2019-05-01T06:47:22.419Z,9.53
2019-05-01T06:50:10.079Z,9.95
2019-05-01T06:52:40.701Z,9.35
2019-05-01T06:55:10.700Z,10.68
2019-05-01T06:57:43.956Z,9.70
2019-05-01T07:00:13.536Z,9.40
2019-05-01T07:02:44.107Z,10.18
2019-05-01T07:05:15.147Z,9.03
2019-05-01T07:07:47.995Z,9.65
2019-05-01T07:10:29.812Z,9.28
2019-05-01T07:12:49.218Z,9.38
2019-05-01T07:15:21.826Z,9.93
2019-05-01T07:17:50.391Z,9.75
2019-05-01T07:20:21.536Z,9.68
2019-05-01T07:22:51.125Z,9.08
2019-05-01T07:25:20.738Z,9.25
2019-05-01T07:27:53.884Z,9.38
2019-05-01T07:30:29.392Z,10.30
2019-05-01T07:32:59.065Z,11.08
2019-05-01T07:35:32.896Z,11.20
2019-05-01T07:38:02.317Z,10.78
2019-05-01T07:40:32.458Z,10.63
2019-05-01T07:43:03.594Z,10.55
2019-05-01T07:45:38.985Z,11.38
2019-05-01T07:48:09.560Z,10.93
2019-05-01T07:50:39.773Z,11.15
2019-05-01T07:53:09.256Z,11.08
2019-05-01T07:55:38.976Z,11.80
2019-05-01T07:58:16.016Z,12.03
2019-05-01T08:00:55.532Z,12.13
2019-05-01T08:03:25.418Z,11.18
2019-05-01T08:05:54.864Z,11.57
2019-05-01T08:08:24.301Z,12.10
2019-05-01T08:10:53.816Z,12.28
2019-05-01T08:13:23.261Z,12.95
2019-05-01T08:15:52.716Z,12.60
2019-05-01T08:18:29.844Z,14.38
2019-05-01T08:21:21.097Z,12.37
2019-05-01T08:23:48.329Z,12.15
2019-05-01T08:26:17.801Z,13.08
2019-05-01T08:29:02.974Z,12.93
2019-05-01T08:31:33.707Z,12.93
2019-05-01T08:34:04.949Z,13.90
2019-05-01T08:36:34.575Z,13.22
2019-05-01T08:39:09.124Z,13.48
2019-05-01T08:44:08.226Z,13.75
2019-05-01T08:46:55.631Z,13.98
2019-05-01T08:49:26.759Z,13.65
2019-05-01T08:51:56.384Z,14.73
2019-05-01T08:54:28.895Z,15.13
2019-05-01T08:56:58.081Z,14.90
2019-05-01T08:59:28.113Z,14.65
2019-05-01T09:02:09.050Z,20.57
2019-05-01T09:04:30.597Z,16.10
2019-05-01T09:06:59.795Z,15.88
2019-05-01T09:09:29.237Z,17.48
2019-05-01T09:11:58.665Z,16.32
2019-05-01T09:14:29.776Z,15.43
2019-05-01T09:16:59.109Z,15.23
2019-05-01T09:19:28.484Z,15.60
2019-05-01T09:21:57.965Z,15.55
2019-05-01T09:24:29.277Z,15.15
2019-05-01T09:27:18.645Z,14.83
2019-05-01T09:29:54.751Z,16.65
2019-05-01T09:32:24.258Z,15.72
2019-05-01T09:34:53.736Z,16.62
2019-05-01T09:37:23.178Z,26.57
2019-05-01T09:39:52.598Z,18.62
2019-05-01T09:42:23.855Z,16.70
2019-05-01T09:44:53.147Z,18.82
2019-05-01T09:47:23.271Z,17.60
2019-05-01T09:49:53.884Z,16.62
2019-05-01T09:52:27.792Z,18.23
2019-05-01T09:54:58.807Z,18.75
2019-05-01T09:57:28.148Z,18.70
2019-05-01T09:59:57.524Z,19.07
2019-05-01T10:02:27.080Z,17.23
2019-05-01T10:04:56.520Z,18.95
2019-05-01T10:07:28.886Z,17.00
2019-05-01T10:09:57.035Z,17.50
2019-05-01T10:12:26.543Z,17.17
2019-05-01T10:14:55.951Z,17.15
2019-05-01T10:17:25.378Z,17.05
2019-05-01T10:19:54.844Z,17.73
2019-05-01T10:22:24.190Z,18.25
2019-05-01T10:24:53.579Z,16.70
2019-05-01T10:27:24.573Z,17.30
2019-05-01T10:30:12.142Z,16.37
2019-05-01T10:32:52.785Z,17.45
2019-05-01T10:35:41.765Z,17.35
2019-05-01T10:38:04.660Z,17.87
2019-05-01T10:40:34.317Z,16.30
2019-05-01T10:43:03.932Z,19.10
2019-05-01T10:45:33.346Z,20.80
2019-05-01T10:48:02.711Z,17.77
2019-05-01T10:50:32.422Z,17.25
2019-05-01T10:53:01.762Z,18.25
2019-05-01T10:55:31.290Z,18.48
2019-05-01T10:58:03.223Z,17.02
2019-05-01T11:00:31.992Z,18.10
2019-05-01T11:03:01.456Z,18.82
2019-05-01T11:05:30.826Z,18.12
2019-05-01T11:08:00.253Z,19.35
2019-05-01T11:10:29.715Z,18.87
2019-05-01T11:12:59.061Z,18.07
2019-05-01T11:15:28.426Z,21.05
2019-05-01T11:17:57.775Z,19.57
2019-05-01T11:20:27.150Z,20.23
2019-05-01T11:22:56.568Z,19.77
2019-05-01T11:25:26.374Z,20.85
2019-05-01T11:27:55.849Z,20.52
2019-05-01T11:30:25.503Z,20.95
2019-05-01T11:33:02.495Z,20.25
2019-05-01T11:35:33.512Z,20.75
2019-05-01T11:38:04.840Z,20.40
2019-05-01T11:40:36.004Z,20.50
2019-05-01T11:43:05.795Z,20.97
2019-05-01T11:45:35.342Z,20.70
2019-05-01T11:48:05.004Z,22.55
2019-05-01T11:50:34.442Z,20.70
2019-05-01T11:53:03.781Z,23.10
2019-05-01T11:55:33.330Z,21.40
2019-05-01T11:58:02.746Z,21.48
2019-05-01T12:00:32.188Z,22.22
2019-05-01T12:03:01.605Z,22.60
2019-05-01T12:05:30.981Z,22.30
2019-05-01T12:08:00.326Z,22.77
2019-05-01T12:10:29.691Z,23.20
2019-05-01T12:12:59.041Z,22.05
2019-05-01T12:15:28.543Z,22.13
2019-05-01T12:17:57.912Z,24.32
2019-05-01T12:20:27.400Z,21.57
2019-05-01T12:22:56.742Z,22.80
2019-05-01T12:25:26.186Z,22.95
2019-05-01T12:27:55.525Z,22.90
2019-05-01T12:30:25.068Z,20.92
2019-05-01T12:32:54.507Z,21.93
2019-05-01T12:35:23.957Z,22.32
2019-05-01T12:37:55.481Z,23.47
2019-05-01T12:40:25.050Z,36.73
2019-05-01T12:42:54.405Z,35.30
2019-05-01T12:45:24.699Z,30.00
2019-05-01T12:47:55.820Z,26.15
2019-05-01T12:50:28.635Z,24.37
2019-05-01T12:52:59.622Z,23.15
2019-05-01T12:55:46.791Z,23.32
2019-05-01T12:58:16.278Z,23.62
2019-05-01T13:00:55.329Z,23.40
2019-05-01T13:03:24.674Z,22.60
2019-05-01T13:05:54.045Z,24.70
2019-05-01T13:08:23.466Z,27.15
2019-05-01T13:10:53.213Z,23.57
2019-05-01T13:13:22.634Z,24.35
2019-05-01T13:15:52.048Z,25.25
2019-05-01T13:18:21.485Z,24.40
2019-05-01T13:20:50.900Z,23.50
2019-05-01T13:23:20.275Z,23.18
2019-05-01T13:25:50.964Z,24.23
2019-05-01T13:28:38.053Z,23.67
2019-05-01T13:31:18.029Z,22.48
2019-05-01T13:33:47.466Z,21.62
2019-05-01T13:36:16.885Z,22.48
2019-05-01T13:38:46.391Z,22.20
2019-05-01T13:41:15.879Z,22.65
2019-05-01T13:43:45.385Z,22.25
2019-05-01T13:46:14.803Z,22.67
2019-05-01T13:48:44.250Z,21.65
2019-05-01T13:51:13.597Z,21.55
2019-05-01T13:53:43.030Z,21.20
2019-05-01T13:56:12.448Z,22.17
2019-05-01T13:58:41.881Z,22.45
2019-05-01T14:01:11.886Z,20.48
2019-05-01T14:03:41.259Z,21.97
2019-05-01T14:06:10.738Z,20.32
2019-05-01T14:08:40.115Z,20.12
2019-05-01T14:11:09.602Z,21.12
2019-05-01T14:13:39.112Z,18.90
2019-05-01T14:16:08.648Z,18.10
2019-05-01T14:18:37.971Z,18.75
2019-05-01T14:21:20.596Z,20.35
2019-05-01T14:24:07.942Z,21.10
2019-05-01T14:26:37.409Z,18.73
2019-05-01T14:29:08.324Z,20.70
2019-05-01T14:31:37.724Z,20.10
2019-05-01T14:34:07.098Z,18.10
2019-05-01T14:36:36.532Z,20.27
2019-05-01T14:39:07.847Z,18.35
2019-05-01T14:41:37.512Z,18.48
2019-05-01T14:44:07.036Z,19.37
2019-05-01T14:46:36.458Z,19.55
2019-05-01T14:49:06.200Z,19.30
2019-05-01T14:51:35.685Z,18.98
2019-05-01T14:54:05.338Z,18.62
2019-05-01T14:56:34.730Z,18.45
2019-05-01T14:59:05.137Z,19.12
2019-05-01T15:01:34.491Z,19.48
2019-05-01T15:04:03.936Z,19.67
2019-05-01T15:06:33.278Z,19.15
2019-05-01T15:09:02.655Z,17.75
2019-05-01T15:11:32.071Z,18.60
2019-05-01T15:14:07.148Z,20.85
2019-05-01T15:16:40.817Z,19.82
2019-05-01T15:19:11.835Z,19.17
2019-05-01T15:21:41.248Z,17.55
2019-05-01T15:24:10.621Z,19.42
2019-05-01T15:26:40.044Z,19.75
2019-05-01T15:29:09.494Z,19.23
2019-05-01T15:31:38.910Z,18.67
2019-05-01T15:34:08.447Z,18.62
2019-05-01T15:36:37.741Z,19.23
2019-05-01T15:39:12.273Z,19.62
2019-05-01T15:41:55.481Z,18.57
2019-05-01T15:44:26.492Z,17.80
2019-05-01T15:46:56.075Z,18.57
2019-05-01T15:49:25.503Z,19.42
2019-05-01T15:51:54.980Z,18.40
2019-05-01T15:54:24.372Z,18.25
2019-05-01T15:56:53.717Z,17.62
2019-05-01T15:59:23.150Z,18.35
2019-05-01T16:01:52.595Z,17.07
2019-05-01T16:04:21.963Z,17.52
2019-05-01T16:06:51.503Z,17.02
2019-05-01T16:09:21.036Z,15.90
2019-05-01T16:12:07.288Z,15.88
2019-05-01T16:14:37.035Z,15.25
2019-05-01T16:17:06.525Z,15.20
2019-05-01T16:19:35.961Z,14.33
2019-05-01T16:22:05.832Z,13.58
2019-05-01T16:24:35.213Z,13.70
2019-05-01T16:27:05.074Z,13.80
2019-05-01T16:29:34.511Z,13.20
2019-05-01T16:32:04.275Z,12.98
2019-05-01T16:34:33.643Z,11.95
2019-05-01T16:37:03.001Z,13.50
2019-05-01T16:39:50.081Z,12.95
2019-05-01T16:42:19.745Z,13.38
2019-05-01T16:44:49.144Z,12.50
2019-05-01T16:47:18.555Z,12.70
2019-05-01T16:49:47.993Z,13.43
2019-05-01T16:52:19.121Z,12.58
2019-05-01T16:54:58.795Z,12.23
2019-05-01T16:57:19.787Z,11.65
2019-05-01T16:59:49.211Z,11.63
2019-05-01T17:02:36.224Z,11.60
2019-05-01T17:05:24.163Z,11.48
2019-05-01T17:08:04.370Z,11.97
2019-05-01T17:10:38.487Z,11.10
2019-05-01T17:13:08.052Z,11.70
2019-05-01T17:15:45.105Z,11.90
2019-05-01T17:18:15.364Z,12.35
2019-05-01T17:20:44.802Z,12.10
2019-05-01T17:23:14.284Z,12.20
2019-05-01T17:25:43.739Z,12.30
2019-05-01T17:28:13.222Z,12.53
2019-05-01T17:30:47.081Z,12.78
2019-05-01T17:33:20.687Z,12.40
2019-05-01T17:35:47.857Z,13.38
2019-05-01T17:38:17.280Z,12.50
2019-05-01T17:40:51.565Z,13.35
2019-05-01T17:43:18.375Z,14.00
2019-05-01T17:45:48.011Z,14.83
2019-05-01T17:48:17.354Z,13.70
2019-05-01T17:50:46.805Z,13.70
2019-05-01T17:53:16.359Z,13.22
2019-05-01T17:55:45.730Z,14.75
2019-05-01T17:58:15.150Z,15.35
2019-05-01T18:00:46.377Z,15.10
2019-05-01T18:03:33.421Z,13.95
2019-05-01T18:06:22.363Z,13.90
2019-05-01T18:09:02.511Z,13.90
2019-05-01T18:11:23.229Z,13.38
2019-05-01T18:13:52.712Z,13.78
2019-05-01T18:16:22.322Z,13.85
2019-05-01T18:18:51.934Z,14.03
2019-05-01T18:21:21.788Z,13.58
2019-05-01T18:23:58.612Z,16.60
2019-05-01T18:26:29.933Z,17.73
2019-05-01T18:29:19.306Z,14.45
2019-05-01T18:31:48.742Z,12.82
2019-05-01T18:34:18.163Z,13.45
2019-05-01T18:37:04.105Z,13.70
2019-05-01T18:39:35.080Z,14.75
2019-05-01T18:42:06.401Z,11.63
2019-05-01T18:44:35.752Z,14.25
2019-05-01T18:47:05.610Z,15.72
2019-05-01T18:49:34.950Z,16.37
2019-05-01T18:52:04.851Z,15.03
2019-05-01T18:54:35.007Z,14.25
2019-05-01T18:57:06.268Z,14.63
2019-05-01T18:59:35.701Z,14.80
2019-05-01T19:02:05.191Z,15.23
2019-05-01T19:04:34.564Z,16.95
2019-05-01T19:07:04.213Z,16.10
2019-05-01T19:09:36.662Z,15.85
2019-05-01T19:12:06.973Z,14.15
2019-05-01T19:14:36.589Z,16.40
2019-05-01T19:17:06.097Z,16.45
2019-05-01T19:19:35.496Z,16.73
2019-05-01T19:22:06.285Z,17.10
2019-05-01T19:24:38.185Z,19.27
2019-05-01T19:27:07.129Z,18.05
2019-05-01T19:29:36.762Z,14.65
2019-05-01T19:32:06.450Z,16.05
2019-05-01T19:34:35.851Z,26.40
2019-05-01T19:37:05.614Z,20.62
2019-05-01T19:39:43.560Z,18.07
2019-05-01T19:42:06.939Z,15.10
2019-05-01T19:44:36.278Z,17.20
2019-05-01T19:47:07.842Z,18.20
2019-05-01T19:49:37.023Z,14.90
2019-05-01T19:52:06.617Z,20.70
2019-05-01T19:54:35.992Z,17.42
2019-05-01T19:57:05.596Z,16.65
2019-05-01T19:59:35.038Z,19.87
2019-05-01T20:02:06.151Z,16.32
2019-05-01T20:04:35.616Z,15.72
2019-05-01T20:07:05.090Z,15.70
2019-05-01T20:09:34.457Z,14.98
2019-05-01T20:12:04.158Z,15.53
2019-05-01T20:14:33.701Z,16.00
2019-05-01T20:17:04.669Z,15.90
2019-05-01T20:19:34.351Z,14.60
2019-05-01T20:22:03.921Z,15.50
2019-05-01T20:24:33.289Z,16.02
2019-05-01T20:27:02.829Z,15.98
2019-05-01T20:29:32.199Z,16.37
2019-05-01T20:32:01.866Z,21.82
2019-05-01T20:34:31.277Z,23.45
2019-05-01T20:37:00.686Z,20.60
2019-05-01T20:39:30.128Z,19.05
2019-05-01T20:41:59.469Z,21.60
2019-05-01T20:44:28.834Z,18.62
2019-05-01T20:47:02.169Z,24.37
2019-05-01T20:49:29.281Z,19.40
2019-05-01T20:51:58.699Z,17.42
2019-05-01T20:54:28.059Z,20.35
2019-05-01T20:56:59.043Z,19.87
2019-05-01T20:59:28.415Z,19.20
2019-05-01T21:02:07.767Z,16.93
2019-05-01T21:04:35.346Z,18.40
2019-05-01T21:07:19.506Z,18.65
2019-05-01T21:09:52.569Z,17.45
2019-05-01T21:12:18.966Z,17.40
2019-05-01T21:14:49.569Z,20.25
2019-05-01T21:17:19.334Z,17.25
2019-05-01T21:19:48.838Z,17.77
2019-05-01T21:22:18.245Z,19.23
2019-05-01T21:24:47.594Z,20.17
2019-05-01T21:27:16.952Z,18.75
2019-05-01T21:29:46.301Z,18.92
2019-05-01T21:32:18.387Z,19.55
2019-05-01T21:34:46.792Z,20.23
2019-05-01T21:37:16.154Z,18.67
2019-05-01T21:39:45.490Z,20.72
2019-05-01T21:42:15.879Z,20.57
2019-05-01T21:44:45.716Z,20.05
2019-05-01T21:47:15.081Z,20.62
2019-05-01T21:49:44.412Z,21.33
2019-05-01T21:52:18.016Z,19.27
2019-05-01T21:54:44.917Z,19.90
2019-05-01T21:57:17.446Z,19.23
2019-05-01T21:59:48.174Z,19.27
2019-05-01T22:02:16.580Z,19.82
2019-05-01T22:04:45.985Z,19.65
2019-05-01T22:07:15.414Z,19.50
2019-05-01T22:09:45.726Z,19.07
2019-05-01T22:12:16.158Z,19.12
2019-05-01T22:14:53.190Z,20.57
2019-05-01T22:17:37.437Z,19.98
2019-05-01T22:20:09.651Z,19.52
2019-05-01T22:22:46.391Z,20.02
2019-05-01T22:25:23.010Z,20.70
2019-05-01T22:27:54.079Z,20.85
2019-05-01T22:30:33.945Z,20.45
2019-05-01T22:33:03.521Z,20.57
2019-05-01T22:35:40.116Z,19.30
2019-05-01T22:38:09.547Z,20.85
2019-05-01T22:41:05.302Z,19.37
2019-05-01T22:43:25.904Z,19.23
2019-05-01T22:45:56.188Z,19.50
2019-05-01T22:48:26.623Z,20.20
2019-05-01T22:50:57.671Z,20.30
2019-05-01T22:53:27.033Z,19.98
2019-05-01T22:55:57.386Z,21.45
2019-05-01T22:58:27.461Z,20.43
2019-05-01T23:00:58.583Z,20.02
2019-05-01T23:03:41.327Z,19.27
2019-05-01T23:06:10.489Z,21.62
2019-05-01T23:08:39.915Z,21.75
2019-05-01T23:11:19.627Z,20.35
2019-05-01T23:13:42.238Z,21.85
2019-05-01T23:16:11.909Z,22.05
2019-05-01T23:18:41.352Z,20.00
2019-05-01T23:21:14.637Z,21.17
2019-05-01T23:23:41.914Z,21.02
2019-05-01T23:26:11.708Z,20.65
2019-05-01T23:28:42.427Z,20.52
2019-05-01T23:31:11.780Z,21.25
2019-05-01T23:33:41.122Z,21.27
2019-05-01T23:36:22.942Z,19.98
2019-05-01T23:38:41.617Z,19.42
2019-05-01T23:41:11.021Z,20.12
2019-05-01T23:43:40.411Z,18.75
2019-05-01T23:46:09.873Z,20.62
2019-05-01T23:48:39.242Z,20.35
2019-05-01T23:51:08.658Z,20.57
2019-05-01T23:53:38.093Z,19.98
2019-05-01T23:56:07.428Z,19.32
2019-05-01T23:58:36.862Z,19.48
